sensor_id;sensor_type;location;lat;lon;timestamp;pressure;altitude;pressure_sealevel;temperature;humidity
59367;BME280;45163;47.690;11.770;2023-09-19T00:00:39;93211.47;;;12.86;100.00
59367;BME280;45163;47.690;11.770;2023-09-19T00:03:07;93213.56;;;12.82;100.00
59367;BME280;45163;47.690;11.770;2023-09-19T00:05:34;93221.50;;;12.80;100.00
59367;BME280;45163;47.690;11.770;2023-09-19T00:08:02;93218.00;;;12.80;100.00
59367;BME280;45163;47.690;11.770;2023-09-19T00:10:32;93220.59;;;12.83;100.00
59367;BME280;45163;47.690;11.770;2023-09-19T00:13:02;93224.00;;;12.96;100.00
59367;BME280;45163;47.690;11.770;2023-09-19T00:15:38;93215.47;;;13.04;100.00
59367;BME280;45163;47.690;11.770;2023-09-19T00:18:05;93213.66;;;13.10;100.00
59367;BME280;45163;47.690;11.770;2023-09-19T00:20:38;93224.63;;;13.10;100.00
59367;BME280;45163;47.690;11.770;2023-09-19T00:23:05;93213.06;;;13.15;100.00
59367;BME280;45163;47.690;11.770;2023-09-19T00:25:31;93211.38;;;13.08;100.00
59367;BME280;45163;47.690;11.770;2023-09-19T00:28:05;93220.03;;;12.98;100.00
59367;BME280;45163;47.690;11.770;2023-09-19T00:30:32;93217.25;;;12.88;100.00
59367;BME280;45163;47.690;11.770;2023-09-19T00:32:59;93218.28;;;12.82;100.00
59367;BME280;45163;47.690;11.770;2023-09-19T00:35:26;93228.66;;;12.87;100.00
59367;BME280;45163;47.690;11.770;2023-09-19T00:37:53;93226.09;;;12.92;100.00
59367;BME280;45163;47.690;11.770;2023-09-19T00:40:19;93225.03;;;12.99;100.00
59367;BME280;45163;47.690;11.770;2023-09-19T00:42:48;93220.66;;;13.02;100.00
59367;BME280;45163;47.690;11.770;2023-09-19T00:45:15;93221.13;;;13.09;100.00
59367;BME280;45163;47.690;11.770;2023-09-19T00:47:45;93225.38;;;13.01;100.00
59367;BME280;45163;47.690;11.770;2023-09-19T00:50:13;93223.66;;;12.94;100.00
59367;BME280;45163;47.690;11.770;2023-09-19T00:52:42;93215.63;;;13.00;100.00
59367;BME280;45163;47.690;11.770;2023-09-19T00:55:09;93221.91;;;13.10;100.00
59367;BME280;45163;47.690;11.770;2023-09-19T00:57:36;93210.16;;;13.09;100.00
59367;BME280;45163;47.690;11.770;2023-09-19T01:00:08;93210.94;;;13.10;100.00
59367;BME280;45163;47.690;11.770;2023-09-19T01:02:37;93220.81;;;13.07;100.00
59367;BME280;45163;47.690;11.770;2023-09-19T01:05:04;93226.47;;;13.13;100.00
59367;BME280;45163;47.690;11.770;2023-09-19T01:07:32;93222.06;;;13.15;100.00
59367;BME280;45163;47.690;11.770;2023-09-19T01:10:00;93220.94;;;13.04;100.00
59367;BME280;45163;47.690;11.770;2023-09-19T01:18:31;93228.72;;;13.05;100.00
59367;BME280;45163;47.690;11.770;2023-09-19T01:21:26;93231.63;;;13.11;100.00
59367;BME280;45163;47.690;11.770;2023-09-19T01:29:46;93228.16;;;13.19;100.00
59367;BME280;45163;47.690;11.770;2023-09-19T01:32:17;93226.81;;;13.24;100.00
59367;BME280;45163;47.690;11.770;2023-09-19T01:37:18;93244.97;;;13.40;100.00
59367;BME280;45163;47.690;11.770;2023-09-19T01:40:06;93267.06;;;13.36;100.00
59367;BME280;45163;47.690;11.770;2023-09-19T01:42:50;93269.19;;;13.32;100.00
59367;BME280;45163;47.690;11.770;2023-09-19T01:45:31;93256.72;;;13.40;100.00
59367;BME280;45163;47.690;11.770;2023-09-19T01:50:59;93260.94;;;13.32;100.00
59367;BME280;45163;47.690;11.770;2023-09-19T01:53:49;93263.69;;;13.23;100.00
59367;BME280;45163;47.690;11.770;2023-09-19T01:56:25;93260.56;;;13.12;100.00
59367;BME280;45163;47.690;11.770;2023-09-19T01:58:56;93256.72;;;13.00;100.00
59367;BME280;45163;47.690;11.770;2023-09-19T02:01:24;93256.41;;;12.98;100.00
59367;BME280;45163;47.690;11.770;2023-09-19T02:03:50;93252.91;;;12.98;100.00
59367;BME280;45163;47.690;11.770;2023-09-19T02:06:18;93263.09;;;12.97;100.00
59367;BME280;45163;47.690;11.770;2023-09-19T02:08:45;93260.78;;;12.95;100.00
59367;BME280;45163;47.690;11.770;2023-09-19T02:11:11;93266.78;;;13.03;100.00
59367;BME280;45163;47.690;11.770;2023-09-19T02:13:39;93268.44;;;13.01;100.00
59367;BME280;45163;47.690;11.770;2023-09-19T02:16:06;93263.28;;;13.03;100.00
59367;BME280;45163;47.690;11.770;2023-09-19T02:18:33;93267.25;;;13.11;100.00
59367;BME280;45163;47.690;11.770;2023-09-19T02:21:02;93278.84;;;13.15;100.00
59367;BME280;45163;47.690;11.770;2023-09-19T02:23:30;93278.56;;;13.22;100.00
59367;BME280;45163;47.690;11.770;2023-09-19T02:25:56;93263.78;;;13.19;100.00
59367;BME280;45163;47.690;11.770;2023-09-19T02:28:29;93266.28;;;13.36;100.00
59367;BME280;45163;47.690;11.770;2023-09-19T02:30:59;93273.53;;;13.20;100.00
59367;BME280;45163;47.690;11.770;2023-09-19T02:33:25;93278.22;;;13.11;100.00
59367;BME280;45163;47.690;11.770;2023-09-19T02:36:00;93272.47;;;13.18;100.00
59367;BME280;45163;47.690;11.770;2023-09-19T02:38:26;93266.53;;;13.19;100.00
59367;BME280;45163;47.690;11.770;2023-09-19T02:40:52;93274.13;;;13.15;100.00
59367;BME280;45163;47.690;11.770;2023-09-19T02:43:18;93273.88;;;13.23;100.00
59367;BME280;45163;47.690;11.770;2023-09-19T02:45:48;93276.47;;;13.26;100.00
59367;BME280;45163;47.690;11.770;2023-09-19T02:48:19;93283.66;;;13.33;100.00
59367;BME280;45163;47.690;11.770;2023-09-19T02:50:49;93275.59;;;13.38;100.00
59367;BME280;45163;47.690;11.770;2023-09-19T02:53:15;93286.97;;;13.28;100.00
59367;BME280;45163;47.690;11.770;2023-09-19T02:55:42;93272.69;;;13.33;100.00
59367;BME280;45163;47.690;11.770;2023-09-19T02:58:08;93269.66;;;13.40;100.00
59367;BME280;45163;47.690;11.770;2023-09-19T03:00:37;93267.28;;;13.20;100.00
59367;BME280;45163;47.690;11.770;2023-09-19T03:03:03;93265.91;;;13.15;100.00
59367;BME280;45163;47.690;11.770;2023-09-19T03:05:31;93261.09;;;13.29;100.00
59367;BME280;45163;47.690;11.770;2023-09-19T03:07:57;93262.53;;;13.11;100.00
59367;BME280;45163;47.690;11.770;2023-09-19T03:10:26;93266.38;;;13.14;100.00
59367;BME280;45163;47.690;11.770;2023-09-19T03:12:54;93263.28;;;13.12;100.00
59367;BME280;45163;47.690;11.770;2023-09-19T03:15:20;93265.41;;;13.08;100.00
59367;BME280;45163;47.690;11.770;2023-09-19T03:17:47;93277.47;;;13.10;100.00
59367;BME280;45163;47.690;11.770;2023-09-19T03:20:14;93267.75;;;13.18;100.00
59367;BME280;45163;47.690;11.770;2023-09-19T03:22:46;93269.72;;;13.18;100.00
59367;BME280;45163;47.690;11.770;2023-09-19T03:25:12;93269.16;;;13.23;100.00
59367;BME280;45163;47.690;11.770;2023-09-19T03:27:39;93270.34;;;13.22;100.00
59367;BME280;45163;47.690;11.770;2023-09-19T03:30:06;93271.13;;;13.23;100.00
59367;BME280;45163;47.690;11.770;2023-09-19T03:32:48;93270.69;;;13.24;100.00
59367;BME280;45163;47.690;11.770;2023-09-19T03:35:16;93267.78;;;13.28;100.00
59367;BME280;45163;47.690;11.770;2023-09-19T03:37:42;93264.69;;;13.16;100.00
59367;BME280;45163;47.690;11.770;2023-09-19T03:40:09;93264.97;;;13.09;100.00
59367;BME280;45163;47.690;11.770;2023-09-19T03:42:40;93263.28;;;13.12;100.00
59367;BME280;45163;47.690;11.770;2023-09-19T03:45:07;93265.31;;;13.20;100.00
59367;BME280;45163;47.690;11.770;2023-09-19T03:47:38;93265.47;;;13.17;100.00
59367;BME280;45163;47.690;11.770;2023-09-19T03:50:05;93265.28;;;13.11;100.00
59367;BME280;45163;47.690;11.770;2023-09-19T03:52:34;93267.13;;;13.14;100.00
59367;BME280;45163;47.690;11.770;2023-09-19T03:55:00;93269.25;;;13.10;100.00
59367;BME280;45163;47.690;11.770;2023-09-19T03:57:27;93267.13;;;13.14;100.00
59367;BME280;45163;47.690;11.770;2023-09-19T03:59:53;93280.38;;;13.16;100.00
59367;BME280;45163;47.690;11.770;2023-09-19T04:02:20;93267.06;;;13.36;100.00
59367;BME280;45163;47.690;11.770;2023-09-19T04:04:51;93253.34;;;13.36;100.00
59367;BME280;45163;47.690;11.770;2023-09-19T04:07:18;93268.56;;;13.28;100.00
59367;BME280;45163;47.690;11.770;2023-09-19T04:09:48;93267.19;;;13.33;100.00
59367;BME280;45163;47.690;11.770;2023-09-19T04:12:15;93257.19;;;13.39;100.00
59367;BME280;45163;47.690;11.770;2023-09-19T04:14:42;93262.63;;;13.30;100.00
59367;BME280;45163;47.690;11.770;2023-09-19T04:17:08;93267.06;;;13.36;100.00
59367;BME280;45163;47.690;11.770;2023-09-19T04:19:36;93270.06;;;13.29;100.00
59367;BME280;45163;47.690;11.770;2023-09-19T04:22:02;93265.75;;;13.19;100.00
59367;BME280;45163;47.690;11.770;2023-09-19T04:24:29;93275.00;;;13.12;100.00
59367;BME280;45163;47.690;11.770;2023-09-19T04:26:56;93282.88;;;13.23;100.00
59367;BME280;45163;47.690;11.770;2023-09-19T04:29:22;93288.44;;;13.19;100.00
59367;BME280;45163;47.690;11.770;2023-09-19T04:31:48;93282.97;;;13.19;100.00
59367;BME280;45163;47.690;11.770;2023-09-19T04:34:14;93294.53;;;13.14;100.00
59367;BME280;45163;47.690;11.770;2023-09-19T04:36:41;93281.31;;;13.22;100.00
59367;BME280;45163;47.690;11.770;2023-09-19T04:39:07;93297.44;;;13.20;100.00
59367;BME280;45163;47.690;11.770;2023-09-19T04:41:34;93309.59;;;13.10;100.00
59367;BME280;45163;47.690;11.770;2023-09-19T04:44:00;93305.00;;;13.07;100.00
59367;BME280;45163;47.690;11.770;2023-09-19T04:46:26;93303.06;;;13.16;100.00
59367;BME280;45163;47.690;11.770;2023-09-19T04:48:52;93309.31;;;13.17;100.00
59367;BME280;45163;47.690;11.770;2023-09-19T04:51:18;93319.34;;;13.20;100.00
59367;BME280;45163;47.690;11.770;2023-09-19T04:53:45;93312.25;;;13.23;100.00
59367;BME280;45163;47.690;11.770;2023-09-19T04:56:11;93318.59;;;13.19;100.00
59367;BME280;45163;47.690;11.770;2023-09-19T04:58:37;93323.72;;;13.08;100.00
59367;BME280;45163;47.690;11.770;2023-09-19T05:01:02;93326.91;;;13.07;100.00
59367;BME280;45163;47.690;11.770;2023-09-19T05:03:30;93331.47;;;13.01;100.00
59367;BME280;45163;47.690;11.770;2023-09-19T05:05:56;93331.03;;;13.11;100.00
59367;BME280;45163;47.690;11.770;2023-09-19T05:08:21;93329.19;;;13.30;100.00
59367;BME280;45163;47.690;11.770;2023-09-19T05:10:48;93343.09;;;13.14;100.00
59367;BME280;45163;47.690;11.770;2023-09-19T05:13:14;93343.25;;;13.19;100.00
59367;BME280;45163;47.690;11.770;2023-09-19T05:15:41;93337.41;;;13.30;100.00
59367;BME280;45163;47.690;11.770;2023-09-19T05:18:06;93336.50;;;13.33;100.00
59367;BME280;45163;47.690;11.770;2023-09-19T05:20:32;93340.78;;;13.34;100.00
59367;BME280;45163;47.690;11.770;2023-09-19T05:23:09;93340.03;;;13.34;100.00
59367;BME280;45163;47.690;11.770;2023-09-19T05:25:40;93345.97;;;13.41;100.00
59367;BME280;45163;47.690;11.770;2023-09-19T05:28:07;93343.06;;;13.36;100.00
59367;BME280;45163;47.690;11.770;2023-09-19T05:30:35;93345.06;;;13.44;100.00
59367;BME280;45163;47.690;11.770;2023-09-19T05:33:05;93348.56;;;13.45;100.00
59367;BME280;45163;47.690;11.770;2023-09-19T05:35:31;93356.16;;;13.41;100.00
59367;BME280;45163;47.690;11.770;2023-09-19T05:37:58;93349.03;;;13.43;100.00
59367;BME280;45163;47.690;11.770;2023-09-19T05:40:25;93356.13;;;13.32;100.00
59367;BME280;45163;47.690;11.770;2023-09-19T05:42:51;93356.03;;;13.44;100.00
59367;BME280;45163;47.690;11.770;2023-09-19T05:45:18;93357.75;;;13.51;100.00
59367;BME280;45163;47.690;11.770;2023-09-19T05:47:51;93358.34;;;13.46;100.00
59367;BME280;45163;47.690;11.770;2023-09-19T05:50:21;93360.34;;;13.55;100.00
59367;BME280;45163;47.690;11.770;2023-09-19T05:52:54;93363.53;;;13.53;100.00
59367;BME280;45163;47.690;11.770;2023-09-19T05:55:22;93364.38;;;13.72;100.00
59367;BME280;45163;47.690;11.770;2023-09-19T05:57:51;93369.53;;;13.79;100.00
59367;BME280;45163;47.690;11.770;2023-09-19T06:00:21;93361.69;;;14.09;100.00
59367;BME280;45163;47.690;11.770;2023-09-19T06:02:54;93367.97;;;14.28;100.00
59367;BME280;45163;47.690;11.770;2023-09-19T06:05:20;93369.94;;;14.45;100.00
59367;BME280;45163;47.690;11.770;2023-09-19T06:07:47;93356.22;;;14.45;100.00
59367;BME280;45163;47.690;11.770;2023-09-19T06:10:13;93358.19;;;14.45;100.00
59367;BME280;45163;47.690;11.770;2023-09-19T06:12:41;93356.06;;;14.40;100.00
59367;BME280;45163;47.690;11.770;2023-09-19T06:15:10;93349.66;;;14.43;100.00
59367;BME280;45163;47.690;11.770;2023-09-19T06:17:48;93353.47;;;14.45;100.00
59367;BME280;45163;47.690;11.770;2023-09-19T06:20:15;93355.75;;;14.38;100.00
59367;BME280;45163;47.690;11.770;2023-09-19T06:22:43;93356.50;;;14.29;100.00
59367;BME280;45163;47.690;11.770;2023-09-19T06:25:10;93363.69;;;14.36;100.00
59367;BME280;45163;47.690;11.770;2023-09-19T06:27:51;93362.94;;;14.54;100.00
59367;BME280;45163;47.690;11.770;2023-09-19T06:30:20;93363.69;;;14.45;100.00
59367;BME280;45163;47.690;11.770;2023-09-19T06:32:46;93364.00;;;14.47;100.00
59367;BME280;45163;47.690;11.770;2023-09-19T06:35:14;93367.69;;;14.72;100.00
59367;BME280;45163;47.690;11.770;2023-09-19T06:37:41;93368.44;;;14.63;100.00
59367;BME280;45163;47.690;11.770;2023-09-19T06:40:12;93367.19;;;14.82;100.00
59367;BME280;45163;47.690;11.770;2023-09-19T06:42:47;93366.72;;;15.02;100.00
59367;BME280;45163;47.690;11.770;2023-09-19T06:45:16;93359.81;;;15.16;100.00
59367;BME280;45163;47.690;11.770;2023-09-19T06:47:45;93364.47;;;15.43;100.00
59367;BME280;45163;47.690;11.770;2023-09-19T06:50:15;93360.81;;;15.79;100.00
59367;BME280;45163;47.690;11.770;2023-09-19T06:52:45;93356.22;;;16.09;100.00
59367;BME280;45163;47.690;11.770;2023-09-19T06:55:13;93360.56;;;16.01;100.00
59367;BME280;45163;47.690;11.770;2023-09-19T06:57:42;93351.56;;;16.15;100.00
59367;BME280;45163;47.690;11.770;2023-09-19T07:00:10;93353.91;;;16.08;100.00
59367;BME280;45163;47.690;11.770;2023-09-19T07:03:07;93357.25;;;16.12;100.00
59367;BME280;45163;47.690;11.770;2023-09-19T07:05:40;93349.91;;;16.09;100.00
59367;BME280;45163;47.690;11.770;2023-09-19T07:08:07;93355.22;;;15.98;100.00
59367;BME280;45163;47.690;11.770;2023-09-19T07:10:34;93367.16;;;15.94;100.00
59367;BME280;45163;47.690;11.770;2023-09-19T07:13:01;93368.03;;;16.01;100.00
59367;BME280;45163;47.690;11.770;2023-09-19T07:15:29;93366.84;;;15.92;100.00
59367;BME280;45163;47.690;11.770;2023-09-19T07:17:56;93367.09;;;16.04;100.00
59367;BME280;45163;47.690;11.770;2023-09-19T07:20:24;93371.09;;;16.03;100.00
59367;BME280;45163;47.690;11.770;2023-09-19T07:22:55;93370.09;;;16.15;100.00
59367;BME280;45163;47.690;11.770;2023-09-19T07:25:21;93374.44;;;16.07;100.00
59367;BME280;45163;47.690;11.770;2023-09-19T07:27:47;93376.78;;;16.23;100.00
59367;BME280;45163;47.690;11.770;2023-09-19T07:30:13;93377.94;;;16.31;100.00
59367;BME280;45163;47.690;11.770;2023-09-19T07:32:40;93374.78;;;16.48;100.00
59367;BME280;45163;47.690;11.770;2023-09-19T07:35:07;93377.47;;;16.72;100.00
59367;BME280;45163;47.690;11.770;2023-09-19T07:37:33;93375.34;;;17.05;100.00
59367;BME280;45163;47.690;11.770;2023-09-19T07:40:00;93385.00;;;17.10;100.00
59367;BME280;45163;47.690;11.770;2023-09-19T07:42:27;93385.44;;;17.38;100.00
59367;BME280;45163;47.690;11.770;2023-09-19T07:44:53;93384.31;;;17.45;100.00
59367;BME280;45163;47.690;11.770;2023-09-19T07:47:20;93399.44;;;17.34;100.00
59367;BME280;45163;47.690;11.770;2023-09-19T07:49:49;93396.97;;;17.07;100.00
59367;BME280;45163;47.690;11.770;2023-09-19T07:52:15;93397.44;;;17.50;100.00
59367;BME280;45163;47.690;11.770;2023-09-19T07:54:41;93400.47;;;17.81;100.00
59367;BME280;45163;47.690;11.770;2023-09-19T07:57:10;93404.66;;;18.27;100.00
59367;BME280;45163;47.690;11.770;2023-09-19T07:59:37;93395.34;;;18.45;100.00
59367;BME280;45163;47.690;11.770;2023-09-19T08:02:04;93400.81;;;17.89;100.00
59367;BME280;45163;47.690;11.770;2023-09-19T08:04:30;93402.47;;;17.66;100.00
59367;BME280;45163;47.690;11.770;2023-09-19T08:06:59;93404.88;;;18.08;100.00
59367;BME280;45163;47.690;11.770;2023-09-19T08:09:26;93400.63;;;17.92;100.00
59367;BME280;45163;47.690;11.770;2023-09-19T08:11:53;93400.00;;;18.18;100.00
59367;BME280;45163;47.690;11.770;2023-09-19T08:14:19;93389.13;;;18.50;100.00
59367;BME280;45163;47.690;11.770;2023-09-19T08:16:45;93389.81;;;18.65;100.00
59367;BME280;45163;47.690;11.770;2023-09-19T08:19:12;93381.53;;;18.85;100.00
59367;BME280;45163;47.690;11.770;2023-09-19T08:21:38;93380.22;;;19.33;100.00
59367;BME280;45163;47.690;11.770;2023-09-19T08:24:04;93384.44;;;19.54;100.00
59367;BME280;45163;47.690;11.770;2023-09-19T08:26:30;93368.53;;;19.75;100.00
59367;BME280;45163;47.690;11.770;2023-09-19T08:28:56;93372.03;;;19.18;100.00
59367;BME280;45163;47.690;11.770;2023-09-19T08:31:22;93370.97;;;19.36;100.00
59367;BME280;45163;47.690;11.770;2023-09-19T08:33:50;93369.63;;;19.57;100.00
59367;BME280;45163;47.690;11.770;2023-09-19T08:36:17;93370.03;;;19.45;100.00
59367;BME280;45163;47.690;11.770;2023-09-19T08:38:43;93367.91;;;19.97;100.00
59367;BME280;45163;47.690;11.770;2023-09-19T08:41:09;93371.50;;;20.52;100.00
59367;BME280;45163;47.690;11.770;2023-09-19T08:43:35;93374.66;;;20.76;100.00
59367;BME280;45163;47.690;11.770;2023-09-19T08:46:15;93372.59;;;21.70;100.00
59367;BME280;45163;47.690;11.770;2023-09-19T08:48:46;93370.28;;;21.35;100.00
59367;BME280;45163;47.690;11.770;2023-09-19T08:51:21;93373.78;;;21.30;100.00
59367;BME280;45163;47.690;11.770;2023-09-19T08:53:57;93364.97;;;22.27;100.00
59367;BME280;45163;47.690;11.770;2023-09-19T08:56:26;93368.50;;;23.44;100.00
59367;BME280;45163;47.690;11.770;2023-09-19T08:58:57;93373.63;;;22.87;100.00
59367;BME280;45163;47.690;11.770;2023-09-19T09:01:28;93359.28;;;23.24;100.00
59367;BME280;45163;47.690;11.770;2023-09-19T09:03:55;93365.13;;;22.62;100.00
59367;BME280;45163;47.690;11.770;2023-09-19T09:06:25;93363.00;;;24.28;100.00
59367;BME280;45163;47.690;11.770;2023-09-19T09:08:52;93372.75;;;23.92;100.00
59367;BME280;45163;47.690;11.770;2023-09-19T09:11:18;93364.84;;;23.24;100.00
59367;BME280;45163;47.690;11.770;2023-09-19T09:13:45;93374.16;;;22.80;100.00
59367;BME280;45163;47.690;11.770;2023-09-19T09:16:12;93365.13;;;23.15;100.00
59367;BME280;45163;47.690;11.770;2023-09-19T09:18:40;93370.84;;;22.93;100.00
59367;BME280;45163;47.690;11.770;2023-09-19T09:21:06;93370.72;;;22.51;100.00
59367;BME280;45163;47.690;11.770;2023-09-19T09:23:32;93370.28;;;22.25;100.00
59367;BME280;45163;47.690;11.770;2023-09-19T09:25:59;93371.97;;;22.45;100.00
59367;BME280;45163;47.690;11.770;2023-09-19T09:28:30;93363.47;;;24.81;100.00
59367;BME280;45163;47.690;11.770;2023-09-19T09:30:58;93365.84;;;25.53;98.31
59367;BME280;45163;47.690;11.770;2023-09-19T09:33:24;93366.06;;;26.51;93.89
59367;BME280;45163;47.690;11.770;2023-09-19T09:35:55;93377.03;;;27.50;88.55
59367;BME280;45163;47.690;11.770;2023-09-19T09:38:28;93366.03;;;28.28;84.10
59367;BME280;45163;47.690;11.770;2023-09-19T09:40:59;93362.84;;;28.03;78.38
59367;BME280;45163;47.690;11.770;2023-09-19T09:46:17;93360.25;;;29.56;73.48
59367;BME280;45163;47.690;11.770;2023-09-19T09:48:56;93350.66;;;26.71;78.92
59367;BME280;45163;47.690;11.770;2023-09-19T09:51:43;93363.47;;;24.32;95.85
59367;BME280;45163;47.690;11.770;2023-09-19T09:54:13;93357.13;;;23.77;100.00
59367;BME280;45163;47.690;11.770;2023-09-19T09:57:00;93359.78;;;23.23;100.00
59367;BME280;45163;47.690;11.770;2023-09-19T09:59:57;93370.72;;;22.46;100.00
59367;BME280;45163;47.690;11.770;2023-09-19T10:02:29;93369.00;;;22.09;100.00
59367;BME280;45163;47.690;11.770;2023-09-19T10:04:59;93377.34;;;21.47;100.00
59367;BME280;45163;47.690;11.770;2023-09-19T10:07:40;93372.81;;;21.50;100.00
59367;BME280;45163;47.690;11.770;2023-09-19T10:10:08;93384.13;;;21.24;100.00
59367;BME280;45163;47.690;11.770;2023-09-19T10:13:01;93384.63;;;21.22;100.00
59367;BME280;45163;47.690;11.770;2023-09-19T10:15:31;93388.03;;;20.83;100.00
59367;BME280;45163;47.690;11.770;2023-09-19T10:18:00;93384.81;;;20.91;100.00
59367;BME280;45163;47.690;11.770;2023-09-19T10:20:28;93378.38;;;21.50;100.00
59367;BME280;45163;47.690;11.770;2023-09-19T10:23:12;93386.69;;;21.61;100.00
59367;BME280;45163;47.690;11.770;2023-09-19T10:25:42;93384.41;;;22.38;100.00
59367;BME280;45163;47.690;11.770;2023-09-19T10:28:11;93383.41;;;22.41;100.00
59367;BME280;45163;47.690;11.770;2023-09-19T10:30:38;93390.19;;;22.40;100.00
59367;BME280;45163;47.690;11.770;2023-09-19T10:33:11;93384.69;;;21.89;100.00
59367;BME280;45163;47.690;11.770;2023-09-19T10:35:45;93392.13;;;22.73;100.00
59367;BME280;45163;47.690;11.770;2023-09-19T10:38:12;93387.34;;;22.68;100.00
59367;BME280;45163;47.690;11.770;2023-09-19T10:40:39;93379.00;;;23.26;100.00
59367;BME280;45163;47.690;11.770;2023-09-19T10:43:13;93384.50;;;23.79;100.00
59367;BME280;45163;47.690;11.770;2023-09-19T10:45:46;93392.84;;;22.96;100.00
59367;BME280;45163;47.690;11.770;2023-09-19T10:48:16;93389.94;;;23.19;95.57
59367;BME280;45163;47.690;11.770;2023-09-19T10:53:41;93376.00;;;27.40;65.98
59367;BME280;45163;47.690;11.770;2023-09-19T10:56:08;93379.19;;;29.11;59.86
59367;BME280;45163;47.690;11.770;2023-09-19T10:58:43;93383.94;;;28.95;56.86
59367;BME280;45163;47.690;11.770;2023-09-19T11:01:11;93379.34;;;28.77;59.06
59367;BME280;45163;47.690;11.770;2023-09-19T11:03:38;93376.34;;;29.55;52.74
59367;BME280;45163;47.690;11.770;2023-09-19T11:06:11;93370.44;;;29.22;53.21
59367;BME280;45163;47.690;11.770;2023-09-19T11:09:01;93369.78;;;30.35;45.48
59367;BME280;45163;47.690;11.770;2023-09-19T11:11:43;93365.00;;;29.84;54.68
59367;BME280;45163;47.690;11.770;2023-09-19T11:30:48;93358.53;;;29.09;55.07
59367;BME280;45163;47.690;11.770;2023-09-19T11:43:52;93351.75;;;30.53;47.21
59367;BME280;45163;47.690;11.770;2023-09-19T11:46:21;93356.84;;;27.65;61.46
59367;BME280;45163;47.690;11.770;2023-09-19T11:48:48;93355.91;;;27.01;63.40
59367;BME280;45163;47.690;11.770;2023-09-19T11:51:17;93352.69;;;28.70;59.75
59367;BME280;45163;47.690;11.770;2023-09-19T11:53:50;93360.31;;;29.27;58.49
59367;BME280;45163;47.690;11.770;2023-09-19T11:56:20;93365.44;;;29.44;49.90
59367;BME280;45163;47.690;11.770;2023-09-19T11:58:52;93359.09;;;28.50;50.56
59367;BME280;45163;47.690;11.770;2023-09-19T12:01:33;93360.97;;;28.76;51.49
59367;BME280;45163;47.690;11.770;2023-09-19T12:04:02;93365.78;;;27.29;60.64
59367;BME280;45163;47.690;11.770;2023-09-19T12:06:30;93362.84;;;25.32;67.15
59367;BME280;45163;47.690;11.770;2023-09-19T12:08:58;93360.69;;;23.78;79.40
59367;BME280;45163;47.690;11.770;2023-09-19T12:11:30;93369.75;;;22.37;92.67
59367;BME280;45163;47.690;11.770;2023-09-19T12:13:59;93362.72;;;21.80;99.00
59367;BME280;45163;47.690;11.770;2023-09-19T12:16:27;93370.50;;;22.27;100.00
59367;BME280;45163;47.690;11.770;2023-09-19T12:18:56;93365.88;;;25.15;79.49
59367;BME280;45163;47.690;11.770;2023-09-19T12:21:24;93359.78;;;24.49;80.75
59367;BME280;45163;47.690;11.770;2023-09-19T12:24:06;93353.66;;;25.69;80.08
59367;BME280;45163;47.690;11.770;2023-09-19T12:26:40;93359.69;;;24.05;84.36
59367;BME280;45163;47.690;11.770;2023-09-19T12:29:18;93366.75;;;22.19;93.89
59367;BME280;45163;47.690;11.770;2023-09-19T12:34:19;93363.88;;;21.01;100.00
59367;BME280;45163;47.690;11.770;2023-09-19T12:36:46;93358.69;;;20.60;100.00
59367;BME280;45163;47.690;11.770;2023-09-19T12:39:22;93352.84;;;23.76;91.29
59367;BME280;45163;47.690;11.770;2023-09-19T12:41:51;93346.00;;;25.70;70.51
59367;BME280;45163;47.690;11.770;2023-09-19T12:44:17;93338.53;;;25.78;63.79
59367;BME280;45163;47.690;11.770;2023-09-19T12:46:44;93352.88;;;27.60;60.10
59367;BME280;45163;47.690;11.770;2023-09-19T12:49:20;93342.47;;;28.88;53.27
59367;BME280;45163;47.690;11.770;2023-09-19T12:51:47;93349.69;;;30.38;48.21
59367;BME280;45163;47.690;11.770;2023-09-19T12:54:13;93348.63;;;32.26;43.20
59367;BME280;45163;47.690;11.770;2023-09-19T12:56:42;93346.59;;;31.61;38.60
59367;BME280;45163;47.690;11.770;2023-09-19T12:59:14;93338.88;;;28.80;47.12
59367;BME280;45163;47.690;11.770;2023-09-19T13:01:41;93335.38;;;28.30;52.56
59367;BME280;45163;47.690;11.770;2023-09-19T13:04:17;93342.97;;;27.46;56.03
59367;BME280;45163;47.690;11.770;2023-09-19T13:06:52;93342.31;;;26.26;68.01
59367;BME280;45163;47.690;11.770;2023-09-19T13:09:20;93335.13;;;26.83;58.89
59367;BME280;45163;47.690;11.770;2023-09-19T13:11:46;93337.47;;;26.40;65.92
59367;BME280;45163;47.690;11.770;2023-09-19T13:17:07;93343.53;;;27.10;69.58
59367;BME280;45163;47.690;11.770;2023-09-19T13:19:44;93330.13;;;29.87;57.83
59367;BME280;45163;47.690;11.770;2023-09-19T13:25:07;93332.34;;;25.98;69.01
59367;BME280;45163;47.690;11.770;2023-09-19T13:27:34;93333.25;;;25.23;74.28
59367;BME280;45163;47.690;11.770;2023-09-19T13:30:00;93325.78;;;24.50;79.49
59367;BME280;45163;47.690;11.770;2023-09-19T13:32:26;93335.44;;;23.70;82.95
59367;BME280;45163;47.690;11.770;2023-09-19T13:34:52;93323.72;;;23.36;91.93
59367;BME280;45163;47.690;11.770;2023-09-19T13:37:18;93328.00;;;23.43;95.00
59367;BME280;45163;47.690;11.770;2023-09-19T13:39:44;93333.13;;;22.86;96.97
59367;BME280;45163;47.690;11.770;2023-09-19T13:42:13;93326.84;;;23.93;86.51
59367;BME280;45163;47.690;11.770;2023-09-19T13:44:39;93326.50;;;24.94;86.63
59367;BME280;45163;47.690;11.770;2023-09-19T13:47:07;93330.47;;;24.12;87.57
59367;BME280;45163;47.690;11.770;2023-09-19T13:49:39;93326.63;;;22.72;93.93
59367;BME280;45163;47.690;11.770;2023-09-19T13:52:05;93332.34;;;22.33;98.17